sensor_id;sensor_type;location;lat;lon;timestamp;P1;durP1;ratioP1;P2;durP2;ratioP2
54899;SDS011;40801;41.924;25.562;2023-07-29T00:00:36;6.22;;;5.82;;
54899;SDS011;40801;41.924;25.562;2023-07-29T00:03:02;7.13;;;6.55;;
54899;SDS011;40801;41.924;25.562;2023-07-29T00:05:27;6.05;;;5.65;;
54899;SDS011;40801;41.924;25.562;2023-07-29T00:07:52;7.38;;;6.68;;
54899;SDS011;40801;41.924;25.562;2023-07-29T00:10:18;6.38;;;5.95;;
54899;SDS011;40801;41.924;25.562;2023-07-29T00:12:43;6.47;;;5.88;;
54899;SDS011;40801;41.924;25.562;2023-07-29T00:15:09;6.53;;;6.10;;
54899;SDS011;40801;41.924;25.562;2023-07-29T00:17:34;7.00;;;6.60;;
54899;SDS011;40801;41.924;25.562;2023-07-29T00:20:00;7.35;;;6.32;;
54899;SDS011;40801;41.924;25.562;2023-07-29T00:22:44;7.40;;;6.75;;
54899;SDS011;40801;41.924;25.562;2023-07-29T00:25:09;7.20;;;6.60;;
54899;SDS011;40801;41.924;25.562;2023-07-29T00:27:34;7.38;;;6.78;;
54899;SDS011;40801;41.924;25.562;2023-07-29T00:30:00;6.22;;;5.82;;
54899;SDS011;40801;41.924;25.562;2023-07-29T00:32:26;6.80;;;6.40;;
54899;SDS011;40801;41.924;25.562;2023-07-29T00:37:19;7.05;;;6.65;;
54899;SDS011;40801;41.924;25.562;2023-07-29T00:39:45;7.28;;;6.88;;
54899;SDS011;40801;41.924;25.562;2023-07-29T00:42:10;6.80;;;6.45;;
54899;SDS011;40801;41.924;25.562;2023-07-29T00:44:36;6.30;;;5.80;;
54899;SDS011;40801;41.924;25.562;2023-07-29T00:47:02;6.68;;;6.07;;
54899;SDS011;40801;41.924;25.562;2023-07-29T00:49:29;7.20;;;6.57;;
54899;SDS011;40801;41.924;25.562;2023-07-29T00:51:55;7.43;;;6.72;;
54899;SDS011;40801;41.924;25.562;2023-07-29T00:54:21;6.72;;;6.32;;
54899;SDS011;40801;41.924;25.562;2023-07-29T00:56:46;6.78;;;6.38;;
54899;SDS011;40801;41.924;25.562;2023-07-29T00:59:12;6.80;;;6.35;;
54899;SDS011;40801;41.924;25.562;2023-07-29T01:01:37;7.32;;;6.60;;
54899;SDS011;40801;41.924;25.562;2023-07-29T01:04:04;7.70;;;6.93;;
54899;SDS011;40801;41.924;25.562;2023-07-29T01:06:34;7.72;;;7.00;;
54899;SDS011;40801;41.924;25.562;2023-07-29T01:12:12;7.18;;;6.63;;
54899;SDS011;40801;41.924;25.562;2023-07-29T01:14:51;6.95;;;6.35;;
54899;SDS011;40801;41.924;25.562;2023-07-29T01:17:48;6.93;;;6.32;;
54899;SDS011;40801;41.924;25.562;2023-07-29T01:20:17;7.15;;;6.65;;
54899;SDS011;40801;41.924;25.562;2023-07-29T01:22:45;6.80;;;6.22;;
54899;SDS011;40801;41.924;25.562;2023-07-29T01:25:12;7.68;;;7.13;;
54899;SDS011;40801;41.924;25.562;2023-07-29T01:27:38;6.85;;;6.35;;
54899;SDS011;40801;41.924;25.562;2023-07-29T01:30:04;7.45;;;6.75;;
54899;SDS011;40801;41.924;25.562;2023-07-29T01:32:43;8.10;;;7.40;;
54899;SDS011;40801;41.924;25.562;2023-07-29T01:37:53;7.32;;;6.93;;
54899;SDS011;40801;41.924;25.562;2023-07-29T01:40:23;7.82;;;7.15;;
54899;SDS011;40801;41.924;25.562;2023-07-29T01:42:52;7.72;;;7.15;;
54899;SDS011;40801;41.924;25.562;2023-07-29T01:45:18;8.18;;;7.57;;
54899;SDS011;40801;41.924;25.562;2023-07-29T01:47:43;7.50;;;6.90;;
54899;SDS011;40801;41.924;25.562;2023-07-29T01:50:09;7.32;;;6.93;;
54899;SDS011;40801;41.924;25.562;2023-07-29T01:52:35;7.97;;;7.38;;
54899;SDS011;40801;41.924;25.562;2023-07-29T01:55:01;7.57;;;7.00;;
54899;SDS011;40801;41.924;25.562;2023-07-29T01:57:27;7.72;;;7.13;;
54899;SDS011;40801;41.924;25.562;2023-07-29T01:59:52;7.35;;;6.85;;
54899;SDS011;40801;41.924;25.562;2023-07-29T02:02:17;8.02;;;7.43;;
54899;SDS011;40801;41.924;25.562;2023-07-29T02:04:43;7.53;;;6.85;;
54899;SDS011;40801;41.924;25.562;2023-07-29T02:07:08;7.38;;;6.90;;
54899;SDS011;40801;41.924;25.562;2023-07-29T02:09:33;8.07;;;7.47;;
54899;SDS011;40801;41.924;25.562;2023-07-29T02:11:59;8.88;;;8.10;;
54899;SDS011;40801;41.924;25.562;2023-07-29T02:14:24;8.98;;;8.40;;
54899;SDS011;40801;41.924;25.562;2023-07-29T02:16:50;7.65;;;7.15;;
54899;SDS011;40801;41.924;25.562;2023-07-29T02:19:15;7.75;;;7.30;;
54899;SDS011;40801;41.924;25.562;2023-07-29T02:21:41;8.07;;;7.43;;
54899;SDS011;40801;41.924;25.562;2023-07-29T02:24:06;8.05;;;7.45;;
54899;SDS011;40801;41.924;25.562;2023-07-29T02:26:32;7.22;;;6.82;;
54899;SDS011;40801;41.924;25.562;2023-07-29T02:28:57;7.55;;;7.13;;
54899;SDS011;40801;41.924;25.562;2023-07-29T02:31:23;8.30;;;7.65;;
54899;SDS011;40801;41.924;25.562;2023-07-29T02:33:50;7.85;;;7.38;;
54899;SDS011;40801;41.924;25.562;2023-07-29T02:36:16;8.05;;;6.97;;
54899;SDS011;40801;41.924;25.562;2023-07-29T02:38:42;7.80;;;7.25;;
54899;SDS011;40801;41.924;25.562;2023-07-29T02:41:08;7.50;;;7.07;;
54899;SDS011;40801;41.924;25.562;2023-07-29T02:43:35;8.18;;;7.68;;
54899;SDS011;40801;41.924;25.562;2023-07-29T02:46:01;8.27;;;7.78;;
54899;SDS011;40801;41.924;25.562;2023-07-29T02:48:27;7.97;;;7.47;;
54899;SDS011;40801;41.924;25.562;2023-07-29T02:50:53;8.65;;;7.90;;
54899;SDS011;40801;41.924;25.562;2023-07-29T02:53:19;7.88;;;7.35;;
54899;SDS011;40801;41.924;25.562;2023-07-29T02:55:44;7.75;;;7.35;;
54899;SDS011;40801;41.924;25.562;2023-07-29T02:58:10;8.57;;;7.97;;
54899;SDS011;40801;41.924;25.562;2023-07-29T03:00:35;7.93;;;7.43;;
54899;SDS011;40801;41.924;25.562;2023-07-29T03:03:00;8.07;;;7.57;;
54899;SDS011;40801;41.924;25.562;2023-07-29T03:05:29;8.57;;;8.07;;
54899;SDS011;40801;41.924;25.562;2023-07-29T03:07:54;7.90;;;7.40;;
54899;SDS011;40801;41.924;25.562;2023-07-29T03:10:20;8.93;;;8.23;;
54899;SDS011;40801;41.924;25.562;2023-07-29T03:12:45;8.63;;;7.93;;
54899;SDS011;40801;41.924;25.562;2023-07-29T03:15:11;8.85;;;8.25;;
54899;SDS011;40801;41.924;25.562;2023-07-29T03:17:37;7.78;;;7.25;;
54899;SDS011;40801;41.924;25.562;2023-07-29T03:20:02;8.07;;;7.55;;
54899;SDS011;40801;41.924;25.562;2023-07-29T03:22:28;8.77;;;8.13;;
54899;SDS011;40801;41.924;25.562;2023-07-29T03:24:53;8.45;;;7.95;;
54899;SDS011;40801;41.924;25.562;2023-07-29T03:27:19;8.30;;;7.80;;
54899;SDS011;40801;41.924;25.562;2023-07-29T03:29:44;8.88;;;8.23;;
54899;SDS011;40801;41.924;25.562;2023-07-29T03:32:10;8.75;;;8.18;;
54899;SDS011;40801;41.924;25.562;2023-07-29T03:34:36;8.57;;;7.95;;
54899;SDS011;40801;41.924;25.562;2023-07-29T03:37:01;8.50;;;7.90;;
54899;SDS011;40801;41.924;25.562;2023-07-29T03:39:27;8.55;;;7.85;;
54899;SDS011;40801;41.924;25.562;2023-07-29T03:41:52;8.57;;;7.97;;
54899;SDS011;40801;41.924;25.562;2023-07-29T03:44:18;9.43;;;8.73;;
54899;SDS011;40801;41.924;25.562;2023-07-29T03:46:43;8.93;;;8.32;;
54899;SDS011;40801;41.924;25.562;2023-07-29T03:49:09;10.68;;;9.45;;
54899;SDS011;40801;41.924;25.562;2023-07-29T03:51:35;9.02;;;8.30;;
54899;SDS011;40801;41.924;25.562;2023-07-29T03:54:00;7.78;;;7.28;;
54899;SDS011;40801;41.924;25.562;2023-07-29T03:56:26;7.60;;;7.20;;
54899;SDS011;40801;41.924;25.562;2023-07-29T03:58:52;8.32;;;7.65;;
54899;SDS011;40801;41.924;25.562;2023-07-29T04:01:17;8.52;;;7.63;;
54899;SDS011;40801;41.924;25.562;2023-07-29T04:03:44;8.75;;;8.05;;
54899;SDS011;40801;41.924;25.562;2023-07-29T04:06:11;9.40;;;8.52;;
54899;SDS011;40801;41.924;25.562;2023-07-29T04:08:36;8.98;;;8.18;;
54899;SDS011;40801;41.924;25.562;2023-07-29T04:11:02;8.63;;;8.13;;
54899;SDS011;40801;41.924;25.562;2023-07-29T04:13:27;8.55;;;7.93;;
54899;SDS011;40801;41.924;25.562;2023-07-29T04:15:52;7.93;;;7.32;;
54899;SDS011;40801;41.924;25.562;2023-07-29T04:18:18;8.27;;;7.68;;
54899;SDS011;40801;41.924;25.562;2023-07-29T04:20:43;8.52;;;7.85;;
54899;SDS011;40801;41.924;25.562;2023-07-29T04:23:09;8.63;;;7.93;;
54899;SDS011;40801;41.924;25.562;2023-07-29T04:25:35;8.48;;;7.97;;
54899;SDS011;40801;41.924;25.562;2023-07-29T04:28:00;8.73;;;7.93;;
54899;SDS011;40801;41.924;25.562;2023-07-29T04:30:28;8.85;;;8.18;;
54899;SDS011;40801;41.924;25.562;2023-07-29T04:32:53;8.25;;;7.85;;
54899;SDS011;40801;41.924;25.562;2023-07-29T04:35:19;8.98;;;8.35;;
54899;SDS011;40801;41.924;25.562;2023-07-29T04:37:44;8.13;;;7.35;;
54899;SDS011;40801;41.924;25.562;2023-07-29T04:40:10;10.45;;;8.63;;
54899;SDS011;40801;41.924;25.562;2023-07-29T04:42:36;8.65;;;8.05;;
54899;SDS011;40801;41.924;25.562;2023-07-29T04:45:02;8.35;;;7.78;;
54899;SDS011;40801;41.924;25.562;2023-07-29T04:47:27;8.73;;;8.07;;
54899;SDS011;40801;41.924;25.562;2023-07-29T04:49:53;8.13;;;7.53;;
54899;SDS011;40801;41.924;25.562;2023-07-29T04:52:19;7.88;;;7.22;;
54899;SDS011;40801;41.924;25.562;2023-07-29T04:54:44;7.60;;;7.07;;
54899;SDS011;40801;41.924;25.562;2023-07-29T04:57:10;8.73;;;7.80;;
54899;SDS011;40801;41.924;25.562;2023-07-29T04:59:35;7.25;;;6.85;;
54899;SDS011;40801;41.924;25.562;2023-07-29T05:02:00;6.80;;;6.40;;
54899;SDS011;40801;41.924;25.562;2023-07-29T05:04:26;7.75;;;7.15;;
54899;SDS011;40801;41.924;25.562;2023-07-29T05:06:51;7.03;;;6.50;;
54899;SDS011;40801;41.924;25.562;2023-07-29T05:09:17;7.88;;;7.18;;
54899;SDS011;40801;41.924;25.562;2023-07-29T05:11:44;6.82;;;6.30;;
54899;SDS011;40801;41.924;25.562;2023-07-29T05:14:11;6.68;;;6.07;;
54899;SDS011;40801;41.924;25.562;2023-07-29T05:16:37;6.22;;;5.65;;
54899;SDS011;40801;41.924;25.562;2023-07-29T05:19:03;6.53;;;5.93;;
54899;SDS011;40801;41.924;25.562;2023-07-29T05:21:28;6.30;;;5.82;;
54899;SDS011;40801;41.924;25.562;2023-07-29T05:23:54;7.60;;;5.63;;
54899;SDS011;40801;41.924;25.562;2023-07-29T05:26:19;6.05;;;5.50;;
54899;SDS011;40801;41.924;25.562;2023-07-29T05:28:45;5.90;;;5.45;;
54899;SDS011;40801;41.924;25.562;2023-07-29T05:31:10;6.65;;;6.10;;
54899;SDS011;40801;41.924;25.562;2023-07-29T05:33:36;5.57;;;5.20;;
54899;SDS011;40801;41.924;25.562;2023-07-29T05:36:01;6.20;;;5.63;;
54899;SDS011;40801;41.924;25.562;2023-07-29T05:38:27;5.80;;;5.40;;
54899;SDS011;40801;41.924;25.562;2023-07-29T05:40:52;6.28;;;5.75;;
54899;SDS011;40801;41.924;25.562;2023-07-29T05:43:18;5.90;;;5.50;;
54899;SDS011;40801;41.924;25.562;2023-07-29T05:45:43;6.60;;;6.07;;
54899;SDS011;40801;41.924;25.562;2023-07-29T05:48:09;6.13;;;5.72;;
54899;SDS011;40801;41.924;25.562;2023-07-29T05:50:34;6.00;;;5.40;;
54899;SDS011;40801;41.924;25.562;2023-07-29T05:52:59;7.53;;;5.75;;
54899;SDS011;40801;41.924;25.562;2023-07-29T05:55:25;6.30;;;5.70;;
54899;SDS011;40801;41.924;25.562;2023-07-29T05:57:50;6.50;;;6.10;;
54899;SDS011;40801;41.924;25.562;2023-07-29T06:00:15;6.50;;;5.88;;
54899;SDS011;40801;41.924;25.562;2023-07-29T06:02:41;6.70;;;6.05;;
54899;SDS011;40801;41.924;25.562;2023-07-29T06:05:06;6.95;;;6.25;;
54899;SDS011;40801;41.924;25.562;2023-07-29T06:07:32;6.40;;;6.00;;
54899;SDS011;40801;41.924;25.562;2023-07-29T06:09:59;6.10;;;5.55;;
54899;SDS011;40801;41.924;25.562;2023-07-29T06:12:24;5.38;;;5.00;;
54899;SDS011;40801;41.924;25.562;2023-07-29T06:14:50;5.35;;;4.88;;
54899;SDS011;40801;41.924;25.562;2023-07-29T06:17:15;5.65;;;5.25;;
54899;SDS011;40801;41.924;25.562;2023-07-29T06:19:41;6.18;;;5.30;;
54899;SDS011;40801;41.924;25.562;2023-07-29T06:22:06;5.90;;;5.40;;
54899;SDS011;40801;41.924;25.562;2023-07-29T06:24:32;6.10;;;5.55;;
54899;SDS011;40801;41.924;25.562;2023-07-29T06:26:57;7.35;;;5.53;;
54899;SDS011;40801;41.924;25.562;2023-07-29T06:29:23;5.00;;;4.60;;
54899;SDS011;40801;41.924;25.562;2023-07-29T06:31:48;5.93;;;5.38;;
54899;SDS011;40801;41.924;25.562;2023-07-29T06:34:14;5.18;;;4.68;;
54899;SDS011;40801;41.924;25.562;2023-07-29T06:36:39;6.18;;;5.60;;
54899;SDS011;40801;41.924;25.562;2023-07-29T06:39:04;6.75;;;4.72;;
54899;SDS011;40801;41.924;25.562;2023-07-29T06:41:30;4.95;;;4.55;;
54899;SDS011;40801;41.924;25.562;2023-07-29T06:43:55;4.60;;;3.83;;
54899;SDS011;40801;41.924;25.562;2023-07-29T06:46:21;4.90;;;4.43;;
54899;SDS011;40801;41.924;25.562;2023-07-29T06:48:46;5.72;;;5.13;;
54899;SDS011;40801;41.924;25.562;2023-07-29T06:51:12;5.38;;;4.88;;
54899;SDS011;40801;41.924;25.562;2023-07-29T06:53:37;5.22;;;4.72;;
54899;SDS011;40801;41.924;25.562;2023-07-29T06:56:03;5.20;;;4.80;;
54899;SDS011;40801;41.924;25.562;2023-07-29T06:58:29;5.35;;;4.60;;
54899;SDS011;40801;41.924;25.562;2023-07-29T07:00:55;5.05;;;4.40;;
54899;SDS011;40801;41.924;25.562;2023-07-29T07:03:20;5.05;;;4.50;;
54899;SDS011;40801;41.924;25.562;2023-07-29T07:05:45;5.05;;;4.60;;
54899;SDS011;40801;41.924;25.562;2023-07-29T07:08:11;5.63;;;4.32;;
54899;SDS011;40801;41.924;25.562;2023-07-29T07:10:36;4.72;;;3.88;;
54899;SDS011;40801;41.924;25.562;2023-07-29T07:13:02;6.95;;;4.60;;
54899;SDS011;40801;41.924;25.562;2023-07-29T07:15:27;4.60;;;4.22;;
54899;SDS011;40801;41.924;25.562;2023-07-29T07:17:53;4.88;;;4.47;;
54899;SDS011;40801;41.924;25.562;2023-07-29T07:20:18;4.82;;;4.32;;
54899;SDS011;40801;41.924;25.562;2023-07-29T07:22:43;4.38;;;4.00;;
54899;SDS011;40801;41.924;25.562;2023-07-29T07:25:09;4.95;;;4.53;;
54899;SDS011;40801;41.924;25.562;2023-07-29T07:27:35;4.38;;;4.07;;
54899;SDS011;40801;41.924;25.562;2023-07-29T07:30:01;4.72;;;4.35;;
54899;SDS011;40801;41.924;25.562;2023-07-29T07:32:26;4.90;;;4.43;;
54899;SDS011;40801;41.924;25.562;2023-07-29T07:34:52;4.15;;;3.90;;
54899;SDS011;40801;41.924;25.562;2023-07-29T07:37:17;4.25;;;3.95;;
54899;SDS011;40801;41.924;25.562;2023-07-29T07:39:43;5.70;;;3.78;;
54899;SDS011;40801;41.924;25.562;2023-07-29T07:42:08;4.28;;;4.00;;
54899;SDS011;40801;41.924;25.562;2023-07-29T07:44:34;5.40;;;4.07;;
54899;SDS011;40801;41.924;25.562;2023-07-29T07:46:59;4.35;;;3.97;;
54899;SDS011;40801;41.924;25.562;2023-07-29T07:49:24;3.95;;;3.65;;
54899;SDS011;40801;41.924;25.562;2023-07-29T07:51:50;4.70;;;3.75;;
54899;SDS011;40801;41.924;25.562;2023-07-29T07:54:15;4.28;;;3.58;;
54899;SDS011;40801;41.924;25.562;2023-07-29T07:56:40;3.65;;;3.35;;
54899;SDS011;40801;41.924;25.562;2023-07-29T07:59:06;3.95;;;3.55;;
54899;SDS011;40801;41.924;25.562;2023-07-29T08:01:35;3.92;;;3.63;;
54899;SDS011;40801;41.924;25.562;2023-07-29T08:04:01;4.22;;;3.67;;
54899;SDS011;40801;41.924;25.562;2023-07-29T08:06:27;3.65;;;3.40;;
54899;SDS011;40801;41.924;25.562;2023-07-29T08:08:52;4.90;;;3.75;;
54899;SDS011;40801;41.924;25.562;2023-07-29T08:11:17;3.83;;;3.47;;
54899;SDS011;40801;41.924;25.562;2023-07-29T08:13:43;4.50;;;4.07;;
54899;SDS011;40801;41.924;25.562;2023-07-29T08:16:08;3.97;;;3.67;;
54899;SDS011;40801;41.924;25.562;2023-07-29T08:18:33;4.00;;;3.70;;
54899;SDS011;40801;41.924;25.562;2023-07-29T08:20:59;3.92;;;3.72;;
54899;SDS011;40801;41.924;25.562;2023-07-29T08:26:12;3.35;;;3.08;;
54899;SDS011;40801;41.924;25.562;2023-07-29T08:28:38;6.57;;;4.00;;
54899;SDS011;40801;41.924;25.562;2023-07-29T08:31:04;3.50;;;3.25;;
54899;SDS011;40801;41.924;25.562;2023-07-29T08:33:30;3.33;;;2.85;;
54899;SDS011;40801;41.924;25.562;2023-07-29T08:35:56;3.08;;;2.85;;
54899;SDS011;40801;41.924;25.562;2023-07-29T08:38:22;4.13;;;2.97;;
54899;SDS011;40801;41.924;25.562;2023-07-29T08:43:34;3.33;;;2.65;;
54899;SDS011;40801;41.924;25.562;2023-07-29T08:46:03;3.30;;;2.90;;
54899;SDS011;40801;41.924;25.562;2023-07-29T08:48:31;5.88;;;3.17;;
54899;SDS011;40801;41.924;25.562;2023-07-29T08:51:04;3.08;;;2.40;;
54899;SDS011;40801;41.924;25.562;2023-07-29T08:53:31;4.20;;;2.88;;
54899;SDS011;40801;41.924;25.562;2023-07-29T08:55:56;2.95;;;2.67;;
54899;SDS011;40801;41.924;25.562;2023-07-29T08:58:23;2.65;;;2.47;;
54899;SDS011;40801;41.924;25.562;2023-07-29T09:00:49;3.28;;;2.38;;
54899;SDS011;40801;41.924;25.562;2023-07-29T09:03:15;3.78;;;2.63;;
54899;SDS011;40801;41.924;25.562;2023-07-29T09:05:41;3.08;;;2.88;;
54899;SDS011;40801;41.924;25.562;2023-07-29T09:08:06;2.78;;;2.55;;
54899;SDS011;40801;41.924;25.562;2023-07-29T09:10:35;2.42;;;2.28;;
54899;SDS011;40801;41.924;25.562;2023-07-29T09:13:02;2.95;;;2.60;;
54899;SDS011;40801;41.924;25.562;2023-07-29T09:15:29;4.53;;;2.58;;
54899;SDS011;40801;41.924;25.562;2023-07-29T09:17:56;2.85;;;2.65;;
54899;SDS011;40801;41.924;25.562;2023-07-29T09:20:26;2.22;;;2.13;;
54899;SDS011;40801;41.924;25.562;2023-07-29T09:22:53;4.20;;;2.28;;
54899;SDS011;40801;41.924;25.562;2023-07-29T09:25:37;4.15;;;2.67;;
54899;SDS011;40801;41.924;25.562;2023-07-29T09:28:12;2.90;;;2.70;;
54899;SDS011;40801;41.924;25.562;2023-07-29T09:30:39;2.95;;;2.42;;
54899;SDS011;40801;41.924;25.562;2023-07-29T09:35:33;3.00;;;2.80;;
54899;SDS011;40801;41.924;25.562;2023-07-29T09:38:00;2.70;;;2.50;;
54899;SDS011;40801;41.924;25.562;2023-07-29T09:40:26;2.72;;;2.45;;
54899;SDS011;40801;41.924;25.562;2023-07-29T09:42:52;2.67;;;2.58;;
54899;SDS011;40801;41.924;25.562;2023-07-29T09:45:22;2.65;;;2.45;;
54899;SDS011;40801;41.924;25.562;2023-07-29T09:47:50;2.58;;;2.38;;
54899;SDS011;40801;41.924;25.562;2023-07-29T09:50:16;3.20;;;2.70;;
54899;SDS011;40801;41.924;25.562;2023-07-29T09:52:42;3.00;;;2.80;;
54899;SDS011;40801;41.924;25.562;2023-07-29T09:55:12;2.70;;;2.50;;
54899;SDS011;40801;41.924;25.562;2023-07-29T09:57:38;2.90;;;2.70;;
54899;SDS011;40801;41.924;25.562;2023-07-29T10:00:05;3.30;;;3.10;;
54899;SDS011;40801;41.924;25.562;2023-07-29T10:02:37;3.25;;;2.65;;
54899;SDS011;40801;41.924;25.562;2023-07-29T10:05:04;2.75;;;2.55;;
54899;SDS011;40801;41.924;25.562;2023-07-29T10:07:30;3.00;;;2.80;;
54899;SDS011;40801;41.924;25.562;2023-07-29T10:09:56;2.63;;;2.45;;
54899;SDS011;40801;41.924;25.562;2023-07-29T10:12:23;3.03;;;2.67;;
54899;SDS011;40801;41.924;25.562;2023-07-29T10:14:50;3.63;;;2.42;;
54899;SDS011;40801;41.924;25.562;2023-07-29T10:17:15;3.42;;;2.47;;
54899;SDS011;40801;41.924;25.562;2023-07-29T10:19:41;3.10;;;2.03;;
54899;SDS011;40801;41.924;25.562;2023-07-29T10:22:08;2.53;;;2.33;;
54899;SDS011;40801;41.924;25.562;2023-07-29T10:24:35;1.90;;;1.80;;
54899;SDS011;40801;41.924;25.562;2023-07-29T10:27:04;1.88;;;1.77;;
54899;SDS011;40801;41.924;25.562;2023-07-29T10:29:32;2.38;;;2.20;;
54899;SDS011;40801;41.924;25.562;2023-07-29T10:32:03;2.42;;;2.22;;
54899;SDS011;40801;41.924;25.562;2023-07-29T10:34:30;2.53;;;2.33;;
54899;SDS011;40801;41.924;25.562;2023-07-29T10:36:57;3.60;;;1.77;;
54899;SDS011;40801;41.924;25.562;2023-07-29T10:39:24;2.10;;;2.00;;
54899;SDS011;40801;41.924;25.562;2023-07-29T10:42:02;3.15;;;1.98;;
54899;SDS011;40801;41.924;25.562;2023-07-29T10:47:11;1.77;;;1.67;;
54899;SDS011;40801;41.924;25.562;2023-07-29T10:49:39;1.90;;;1.80;;
54899;SDS011;40801;41.924;25.562;2023-07-29T10:52:05;2.13;;;2.00;;
54899;SDS011;40801;41.924;25.562;2023-07-29T10:54:31;2.60;;;2.40;;
54899;SDS011;40801;41.924;25.562;2023-07-29T10:57:15;2.10;;;1.85;;
54899;SDS011;40801;41.924;25.562;2023-07-29T10:59:59;3.03;;;1.98;;
54899;SDS011;40801;41.924;25.562;2023-07-29T11:02:31;2.15;;;1.90;;
54899;SDS011;40801;41.924;25.562;2023-07-29T11:04:59;2.20;;;2.10;;
54899;SDS011;40801;41.924;25.562;2023-07-29T11:07:30;2.33;;;1.83;;
54899;SDS011;40801;41.924;25.562;2023-07-29T11:12:49;2.03;;;1.85;;
54899;SDS011;40801;41.924;25.562;2023-07-29T11:15:28;1.50;;;1.40;;
54899;SDS011;40801;41.924;25.562;2023-07-29T11:17:58;2.25;;;2.03;;
54899;SDS011;40801;41.924;25.562;2023-07-29T11:20:25;2.00;;;1.75;;
54899;SDS011;40801;41.924;25.562;2023-07-29T11:22:53;2.25;;;2.05;;
54899;SDS011;40801;41.924;25.562;2023-07-29T11:25:20;1.75;;;1.65;;
54899;SDS011;40801;41.924;25.562;2023-07-29T11:27:46;1.40;;;1.30;;
54899;SDS011;40801;41.924;25.562;2023-07-29T11:30:13;1.63;;;1.40;;
54899;SDS011;40801;41.924;25.562;2023-07-29T11:32:40;1.65;;;1.50;;
54899;SDS011;40801;41.924;25.562;2023-07-29T11:35:11;3.43;;;1.60;;
54899;SDS011;40801;41.924;25.562;2023-07-29T11:37:40;1.70;;;1.60;;
54899;SDS011;40801;41.924;25.562;2023-07-29T11:40:07;2.67;;;1.48;;
54899;SDS011;40801;41.924;25.562;2023-07-29T11:42:35;1.70;;;1.60;;
54899;SDS011;40801;41.924;25.562;2023-07-29T11:45:02;1.67;;;1.58;;
54899;SDS011;40801;41.924;25.562;2023-07-29T11:47:31;1.80;;;1.70;;
54899;SDS011;40801;41.924;25.562;2023-07-29T11:50:00;1.92;;;1.45;;
54899;SDS011;40801;41.924;25.562;2023-07-29T11:52:27;2.35;;;1.90;;
54899;SDS011;40801;41.924;25.562;2023-07-29T11:54:53;2.10;;;2.00;;
54899;SDS011;40801;41.924;25.562;2023-07-29T11:57:19;1.60;;;1.50;;
54899;SDS011;40801;41.924;25.562;2023-07-29T11:59:46;1.98;;;1.80;;
54899;SDS011;40801;41.924;25.562;2023-07-29T12:02:12;1.88;;;1.73;;
54899;SDS011;40801;41.924;25.562;2023-07-29T12:04:40;1.50;;;1.40;;
54899;SDS011;40801;41.924;25.562;2023-07-29T12:07:07;1.88;;;1.30;;
54899;SDS011;40801;41.924;25.562;2023-07-29T12:09:36;1.67;;;1.50;;
54899;SDS011;40801;41.924;25.562;2023-07-29T12:12:05;1.60;;;1.50;;
54899;SDS011;40801;41.924;25.562;2023-07-29T12:14:32;1.58;;;1.40;;
54899;SDS011;40801;41.924;25.562;2023-07-29T12:17:01;1.27;;;1.27;;
54899;SDS011;40801;41.924;25.562;2023-07-29T12:19:31;2.10;;;1.45;;
54899;SDS011;40801;41.924;25.562;2023-07-29T12:22:02;1.33;;;1.30;;
54899;SDS011;40801;41.924;25.562;2023-07-29T12:24:31;1.58;;;1.48;;
54899;SDS011;40801;41.924;25.562;2023-07-29T12:26:57;1.80;;;1.70;;
54899;SDS011;40801;41.924;25.562;2023-07-29T12:29:23;1.73;;;1.63;;
54899;SDS011;40801;41.924;25.562;2023-07-29T12:31:48;1.58;;;1.48;;
54899;SDS011;40801;41.924;25.562;2023-07-29T12:34:21;1.77;;;1.30;;
54899;SDS011;40801;41.924;25.562;2023-07-29T12:36:50;1.83;;;1.73;;
54899;SDS011;40801;41.924;25.562;2023-07-29T12:39:19;2.88;;;2.05;;
54899;SDS011;40801;41.924;25.562;2023-07-29T12:41:46;3.60;;;1.85;;
54899;SDS011;40801;41.924;25.562;2023-07-29T12:44:13;2.65;;;2.38;;
54899;SDS011;40801;41.924;25.562;2023-07-29T12:46:38;4.05;;;3.75;;
54899;SDS011;40801;41.924;25.562;2023-07-29T12:49:04;2.25;;;2.08;;
54899;SDS011;40801;41.924;25.562;2023-07-29T12:51:29;2.80;;;2.50;;
54899;SDS011;40801;41.924;25.562;2023-07-29T12:53:55;1.60;;;1.50;;
54899;SDS011;40801;41.924;25.562;2023-07-29T12:56:20;1.90;;;1.80;;
54899;SDS011;40801;41.924;25.562;2023-07-29T12:58:45;1.70;;;1.60;;
54899;SDS011;40801;41.924;25.562;2023-07-29T13:01:11;1.35;;;1.27;;
54899;SDS011;40801;41.924;25.562;2023-07-29T13:03:42;1.80;;;1.70;;
54899;SDS011;40801;41.924;25.562;2023-07-29T13:06:07;1.52;;;1.50;;
54899;SDS011;40801;41.924;25.562;2023-07-29T13:08:33;2.35;;;2.25;;
54899;SDS011;40801;41.924;25.562;2023-07-29T13:10:58;1.98;;;1.88;;
54899;SDS011;40801;41.924;25.562;2023-07-29T13:13:24;2.10;;;1.88;;
54899;SDS011;40801;41.924;25.562;2023-07-29T13:15:49;3.80;;;3.55;;
54899;SDS011;40801;41.924;25.562;2023-07-29T13:18:14;7.72;;;7.13;;
54899;SDS011;40801;41.924;25.562;2023-07-29T13:20:40;4.00;;;3.58;;
54899;SDS011;40801;41.924;25.562;2023-07-29T13:23:05;5.25;;;4.85;;
54899;SDS011;40801;41.924;25.562;2023-07-29T13:25:30;5.80;;;5.22;;
54899;SDS011;40801;41.924;25.562;2023-07-29T13:27:56;6.60;;;6.03;;
54899;SDS011;40801;41.924;25.562;2023-07-29T13:30:21;8.82;;;7.97;;
54899;SDS011;40801;41.924;25.562;2023-07-29T13:32:46;7.63;;;7.03;;
54899;SDS011;40801;41.924;25.562;2023-07-29T13:35:12;5.15;;;4.70;;
54899;SDS011;40801;41.924;25.562;2023-07-29T13:37:37;4.18;;;3.78;;
54899;SDS011;40801;41.924;25.562;2023-07-29T13:40:03;9.20;;;8.50;;
54899;SDS011;40801;41.924;25.562;2023-07-29T13:42:28;5.93;;;5.57;;
54899;SDS011;40801;41.924;25.562;2023-07-29T13:44:54;7.57;;;7.03;;
54899;SDS011;40801;41.924;25.562;2023-07-29T13:47:19;6.75;;;6.25;;
54899;SDS011;40801;41.924;25.562;2023-07-29T13:49:44;7.68;;;7.05;;
54899;SDS011;40801;41.924;25.562;2023-07-29T13:52:10;8.32;;;7.72;;
54899;SDS011;40801;41.924;25.562;2023-07-29T13:54:35;9.10;;;8.20;;
54899;SDS011;40801;41.924;25.562;2023-07-29T13:57:00;5.05;;;4.65;;
54899;SDS011;40801;41.924;25.562;2023-07-29T13:59:26;5.53;;;5.13;;
54899;SDS011;40801;41.924;25.562;2023-07-29T14:01:51;2.30;;;2.20;;
54899;SDS011;40801;41.924;25.562;2023-07-29T14:04:17;2.20;;;2.03;;
54899;SDS011;40801;41.924;25.562;2023-07-29T14:06:42;1.90;;;1.80;;
54899;SDS011;40801;41.924;25.562;2023-07-29T14:09:08;1.92;;;1.83;;
54899;SDS011;40801;41.924;25.562;2023-07-29T14:11:33;1.90;;;1.80;;
54899;SDS011;40801;41.924;25.562;2023-07-29T14:13:58;3.42;;;3.22;;
54899;SDS011;40801;41.924;25.562;2023-07-29T14:16:24;6.25;;;5.75;;
54899;SDS011;40801;41.924;25.562;2023-07-29T14:18:49;8.27;;;7.68;;
54899;SDS011;40801;41.924;25.562;2023-07-29T14:21:15;12.43;;;11.20;;
54899;SDS011;40801;41.924;25.562;2023-07-29T14:23:40;6.88;;;6.38;;
54899;SDS011;40801;41.924;25.562;2023-07-29T14:26:05;6.13;;;4.68;;
54899;SDS011;40801;41.924;25.562;2023-07-29T14:28:31;4.68;;;3.80;;
54899;SDS011;40801;41.924;25.562;2023-07-29T14:30:56;3.90;;;3.60;;
54899;SDS011;40801;41.924;25.562;2023-07-29T14:33:22;2.17;;;1.80;;
54899;SDS011;40801;41.924;25.562;2023-07-29T14:35:47;2.20;;;2.10;;
54899;SDS011;40801;41.924;25.562;2023-07-29T14:38:12;2.45;;;2.08;;
54899;SDS011;40801;41.924;25.562;2023-07-29T14:40:38;10.60;;;9.57;;
54899;SDS011;40801;41.924;25.562;2023-07-29T14:43:03;4.78;;;4.28;;
54899;SDS011;40801;41.924;25.562;2023-07-29T14:45:29;8.15;;;7.40;;
54899;SDS011;40801;41.924;25.562;2023-07-29T14:47:54;9.93;;;9.00;;
54899;SDS011;40801;41.924;25.562;2023-07-29T14:50:19;2.78;;;2.30;;